Cowichan Bay, Canada
Current Conditions -  °F | °C
As of 4:00 AM on Friday 28 Nov 2014 (Local Time) from CYYJ Reporting Station
Rain Showers Rain Showers  
Wind Chill: 44°   Ceiling: 2800
Heat Index: 48°   Visibility: 15mi
Dew Point: 45°   Wind: 10mph
Humidity: 87%   Direction: 360°N
Pressure: 29.53"   Gusts: NA
Location:  48.73°N, 123.62°W
Report Text: CYYJ 281200Z 36009KT 15SM -SHRA FEW009 SCT019TCU BKN028 OVC049 09/07 A2953 RMK SC2TCU1SC3SC2 /SNSHN 051/ PRESRR SLP001
Loading
Personal Weather Stations






























Interactive Weather Map New forecast layout! Learn more

10-Day Weather Forecast

Advertisements
Track Severe Weather on mobile